createdAt,value
2022-12-19T00:00:41.903Z,100750.81
2022-12-19T00:03:09.135Z,100748.06
2022-12-19T00:05:37.772Z,100742.56
2022-12-19T00:08:12.394Z,100746.91
2022-12-19T00:10:53.734Z,100741.56
2022-12-19T00:13:20.743Z,100734.94
2022-12-19T00:15:47.750Z,100735.59
2022-12-19T00:18:14.901Z,100734.75
2022-12-19T00:20:41.967Z,100724.06
2022-12-19T00:23:09.117Z,100731.06
2022-12-19T00:25:36.275Z,100734.59
2022-12-19T00:28:12.166Z,100729.13
2022-12-19T00:30:39.363Z,100725.50
2022-12-19T00:33:06.751Z,100719.22
2022-12-19T00:35:33.783Z,100708.69
2022-12-19T00:38:00.948Z,100694.19
2022-12-19T00:40:28.739Z,100693.25
2022-12-19T00:42:55.874Z,100693.25
2022-12-19T00:45:25.463Z,100703.69
2022-12-19T00:47:52.535Z,100692.22
2022-12-19T00:50:21.000Z,100693.69
2022-12-19T00:52:48.042Z,100697.78
2022-12-19T00:55:18.427Z,100694.34
2022-12-19T00:57:46.588Z,100681.53
2022-12-19T01:00:14.551Z,100690.19
2022-12-19T01:02:41.748Z,100685.81
2022-12-19T01:05:09.340Z,100679.38
2022-12-19T01:07:36.493Z,100692.03
2022-12-19T01:10:04.631Z,100691.28
2022-12-19T01:12:31.907Z,100691.22
2022-12-19T01:15:04.556Z,100695.78
2022-12-19T01:17:33.803Z,100698.22
2022-12-19T01:20:02.734Z,100695.53
2022-12-19T01:22:29.753Z,100713.22
2022-12-19T01:24:56.773Z,100716.84
2022-12-19T01:27:23.813Z,100706.22
2022-12-19T01:29:52.240Z,100711.44
2022-12-19T01:32:21.654Z,100726.53
2022-12-19T01:34:50.820Z,100715.75
2022-12-19T01:37:18.392Z,100709.41
2022-12-19T01:39:46.182Z,100718.94
2022-12-19T01:42:23.327Z,100726.00
2022-12-19T01:45:12.290Z,100729.50
2022-12-19T01:48:00.702Z,100721.31
2022-12-19T01:50:44.963Z,100732.88
2022-12-19T01:53:29.937Z,100727.53
2022-12-19T01:55:57.594Z,100721.38
2022-12-19T01:58:25.475Z,100719.38
2022-12-19T02:00:52.604Z,100720.06
2022-12-19T02:03:26.918Z,100717.34
2022-12-19T02:05:55.113Z,100713.72
2022-12-19T02:08:24.391Z,100713.56
2022-12-19T02:10:51.551Z,100709.88
2022-12-19T02:13:19.489Z,100703.50
2022-12-19T02:15:59.693Z,100705.22
2022-12-19T02:18:40.476Z,100698.09
2022-12-19T02:21:30.988Z,100694.53
2022-12-19T02:24:31.194Z,100692.19
2022-12-19T02:27:19.895Z,100691.78
2022-12-19T02:30:00.781Z,100690.94
2022-12-19T02:32:46.195Z,100698.88
2022-12-19T02:35:46.867Z,100681.09
2022-12-19T02:38:38.756Z,100688.56
2022-12-19T02:41:15.714Z,100692.94
2022-12-19T02:43:49.100Z,100697.06
2022-12-19T02:46:27.930Z,100694.03
2022-12-19T02:48:56.542Z,100680.38
2022-12-19T02:51:23.583Z,100684.00
2022-12-19T02:53:51.115Z,100687.47
2022-12-19T02:56:42.864Z,100675.13
2022-12-19T02:59:34.909Z,100680.31
2022-12-19T03:02:08.215Z,100677.78
2022-12-19T03:04:41.438Z,100674.09
2022-12-19T03:07:36.849Z,100679.28
2022-12-19T03:10:18.210Z,100669.56
2022-12-19T03:12:53.607Z,100665.69
2022-12-19T03:15:22.246Z,100668.06
2022-12-19T03:17:50.269Z,100659.78
2022-12-19T03:20:42.223Z,100655.38
2022-12-19T03:23:09.620Z,100649.97
2022-12-19T03:25:37.241Z,100646.41
2022-12-19T03:28:15.387Z,100653.59
2022-12-19T03:30:43.928Z,100643.59
2022-12-19T03:33:13.439Z,100652.50
2022-12-19T03:35:41.715Z,100650.84
2022-12-19T03:38:10.906Z,100633.63
2022-12-19T03:40:42.864Z,100640.91
2022-12-19T03:43:12.693Z,100624.84
2022-12-19T03:45:40.410Z,100628.16
2022-12-19T03:48:13.943Z,100626.22
2022-12-19T03:50:53.179Z,100620.06
2022-12-19T03:53:26.187Z,100622.81
2022-12-19T03:56:09.817Z,100619.22
2022-12-19T03:58:40.883Z,100617.72
2022-12-19T04:01:09.576Z,100622.34
2022-12-19T04:03:36.915Z,100620.22
2022-12-19T04:06:05.369Z,100616.44
2022-12-19T04:08:33.552Z,100618.88
2022-12-19T04:11:09.715Z,100611.63
2022-12-19T04:14:05.952Z,100620.59
2022-12-19T04:16:44.813Z,100616.28
2022-12-19T04:19:28.526Z,100606.22
2022-12-19T04:22:12.659Z,100607.63
2022-12-19T04:24:42.803Z,100609.69
2022-12-19T04:27:13.131Z,100598.03
2022-12-19T04:29:41.385Z,100604.97
2022-12-19T04:32:09.557Z,100610.31
2022-12-19T04:34:40.199Z,100603.84
2022-12-19T04:37:11.042Z,100599.44
2022-12-19T04:39:38.522Z,100598.34
2022-12-19T04:42:05.763Z,100606.38
2022-12-19T04:44:32.810Z,100605.50
2022-12-19T04:46:59.932Z,100600.06
2022-12-19T04:49:27.002Z,100599.84
2022-12-19T04:51:54.149Z,100597.84
2022-12-19T04:54:21.744Z,100592.50
2022-12-19T04:56:48.779Z,100588.00
2022-12-19T04:59:15.822Z,100573.78
2022-12-19T05:01:43.005Z,100579.81
2022-12-19T05:04:10.270Z,100570.00
2022-12-19T05:06:39.580Z,100583.28
2022-12-19T05:09:06.687Z,100580.63
2022-12-19T05:11:33.725Z,100592.16
2022-12-19T05:14:00.773Z,100569.84
2022-12-19T05:16:28.336Z,100567.03
2022-12-19T05:18:56.247Z,100576.03
2022-12-19T05:21:23.837Z,100566.81
2022-12-19T05:23:51.116Z,100570.53
2022-12-19T05:26:20.711Z,100577.53
2022-12-19T05:28:47.682Z,100572.09
2022-12-19T05:31:17.980Z,100570.09
2022-12-19T05:33:45.814Z,100565.47
2022-12-19T05:36:15.007Z,100567.41
2022-12-19T05:38:42.199Z,100572.63
2022-12-19T05:41:11.470Z,100579.84
2022-12-19T05:43:43.737Z,100577.91
2022-12-19T05:46:11.452Z,100586.97
2022-12-19T05:48:38.634Z,100582.53
2022-12-19T05:51:05.743Z,100580.66
2022-12-19T05:53:35.598Z,100595.69
2022-12-19T05:56:17.007Z,100587.50
2022-12-19T05:58:45.930Z,100592.13
2022-12-19T06:01:17.196Z,100589.28
2022-12-19T06:03:44.679Z,100589.44
2022-12-19T06:06:14.738Z,100591.88
2022-12-19T06:08:42.489Z,100595.38
2022-12-19T06:11:11.322Z,100590.97
2022-12-19T06:13:39.007Z,100587.44
2022-12-19T06:16:12.242Z,100582.59
2022-12-19T06:18:45.003Z,100577.31
2022-12-19T06:21:19.599Z,100592.53
2022-12-19T06:23:47.472Z,100577.47
2022-12-19T06:26:19.859Z,100580.06
2022-12-19T06:28:52.217Z,100585.97
2022-12-19T06:31:21.427Z,100580.53
2022-12-19T06:33:48.930Z,100576.88
2022-12-19T06:36:21.100Z,100582.34
2022-12-19T06:38:49.043Z,100583.03
2022-12-19T06:41:20.043Z,100578.44
2022-12-19T06:43:51.893Z,100582.06
2022-12-19T06:46:20.862Z,100592.78
2022-12-19T06:48:47.996Z,100586.47
2022-12-19T06:51:15.141Z,100586.41
2022-12-19T06:53:43.383Z,100587.19
2022-12-19T06:56:13.432Z,100583.63
2022-12-19T06:58:40.583Z,100590.91
2022-12-19T07:01:08.233Z,100577.69
2022-12-19T07:03:40.078Z,100583.38
2022-12-19T07:06:07.924Z,100583.63
2022-12-19T07:08:35.005Z,100591.88
2022-12-19T07:11:02.957Z,100577.75
2022-12-19T07:13:31.236Z,100580.34
2022-12-19T07:16:02.650Z,100583.81
2022-12-19T07:18:38.480Z,100585.47
2022-12-19T07:21:07.852Z,100576.81
2022-12-19T07:23:35.399Z,100584.00
2022-12-19T07:26:02.650Z,100586.59
2022-12-19T07:28:29.809Z,100580.19
2022-12-19T07:30:56.908Z,100579.41
2022-12-19T07:33:24.077Z,100586.44
2022-12-19T07:35:51.178Z,100587.44
2022-12-19T07:38:18.323Z,100595.38
2022-12-19T07:40:45.407Z,100590.81
2022-12-19T07:43:12.467Z,100580.03
2022-12-19T07:45:39.762Z,100575.25
2022-12-19T07:48:08.233Z,100580.47
2022-12-19T07:50:35.617Z,100586.75
2022-12-19T07:53:02.878Z,100585.03
2022-12-19T07:55:30.026Z,100585.81
2022-12-19T07:57:57.115Z,100591.78
2022-12-19T08:00:24.177Z,100594.03
2022-12-19T08:02:51.362Z,100595.41
2022-12-19T08:05:18.769Z,100604.56
2022-12-19T08:07:45.787Z,100603.69
2022-12-19T08:10:12.820Z,100607.94
2022-12-19T08:12:42.976Z,100609.56
2022-12-19T08:15:11.002Z,100606.44
2022-12-19T08:17:38.667Z,100617.00
2022-12-19T08:20:09.840Z,100615.38
2022-12-19T08:22:37.289Z,100607.06
2022-12-19T08:25:04.835Z,100609.22
2022-12-19T08:27:31.934Z,100600.97
2022-12-19T08:29:58.956Z,100598.63
2022-12-19T08:32:28.530Z,100595.78
2022-12-19T08:34:55.569Z,100597.50
2022-12-19T08:37:22.716Z,100588.50
2022-12-19T08:39:49.747Z,100599.22
2022-12-19T08:42:16.775Z,100595.78
2022-12-19T08:44:44.967Z,100587.56
2022-12-19T08:47:11.961Z,100585.81
2022-12-19T08:49:39.030Z,100580.66
2022-12-19T08:52:06.302Z,100582.94
2022-12-19T08:54:33.615Z,100581.19
2022-12-19T08:57:04.500Z,100582.63
2022-12-19T08:59:32.261Z,100584.78
2022-12-19T09:02:00.847Z,100580.84
2022-12-19T09:06:01.676Z,100587.97
2022-12-19T09:07:16.493Z,100585.00
2022-12-19T09:09:44.648Z,100582.13
2022-12-19T09:12:15.407Z,100586.09
2022-12-19T09:14:42.557Z,100576.63
2022-12-19T09:17:10.204Z,100571.56
2022-12-19T09:19:37.316Z,100581.91
2022-12-19T09:22:04.961Z,100577.25
2022-12-19T09:24:32.089Z,100582.53
2022-12-19T09:26:59.155Z,100584.34
2022-12-19T09:29:28.701Z,100578.69
2022-12-19T09:31:58.539Z,100567.38
2022-12-19T09:34:33.023Z,100578.19
2022-12-19T09:37:16.962Z,100573.97
2022-12-19T09:39:46.961Z,100580.03
2022-12-19T09:42:41.388Z,100580.13
2022-12-19T09:45:33.304Z,100577.53
2022-12-19T09:48:01.798Z,100582.44
2022-12-19T09:51:11.124Z,100577.03
2022-12-19T09:54:09.527Z,100565.69
2022-12-19T09:56:46.525Z,100571.06
2022-12-19T09:59:41.233Z,100573.47
2022-12-19T10:02:24.113Z,100579.97
2022-12-19T10:05:11.449Z,100572.00
2022-12-19T10:08:09.747Z,100576.22
2022-12-19T10:12:37.860Z,100573.44
2022-12-19T10:14:11.964Z,100570.09
2022-12-19T10:17:24.883Z,100565.47
2022-12-19T10:20:11.058Z,100559.25
2022-12-19T10:23:07.833Z,100562.50
2022-12-19T10:25:59.752Z,100564.22
2022-12-19T10:28:37.417Z,100566.19
2022-12-19T10:31:21.404Z,100559.47
2022-12-19T10:34:18.121Z,100556.56
2022-12-19T10:37:20.960Z,100558.47
2022-12-19T10:39:39.859Z,100564.22
2022-12-19T10:42:17.198Z,100554.34
2022-12-19T10:44:47.486Z,100550.94
2022-12-19T10:47:17.023Z,100540.81
2022-12-19T10:49:44.118Z,100528.88
2022-12-19T10:52:12.595Z,100533.38
2022-12-19T10:54:43.071Z,100525.84
2022-12-19T10:57:22.134Z,100531.13
2022-12-19T11:00:16.990Z,100517.88
2022-12-19T11:02:49.688Z,100519.47
2022-12-19T11:05:42.091Z,100515.59
2022-12-19T11:08:09.054Z,100501.28
2022-12-19T11:11:50.267Z,100507.44
2022-12-19T11:19:13.300Z,100510.97
2022-12-19T11:21:21.368Z,100498.94
2022-12-19T11:29:38.156Z,100500.25
2022-12-19T11:29:39.120Z,100508.53
2022-12-19T11:29:55.844Z,100502.28
2022-12-19T11:30:45.318Z,100501.97
2022-12-19T11:34:06.261Z,100492.47
2022-12-19T11:36:41.598Z,100490.44
2022-12-19T11:39:30.403Z,100486.66
2022-12-19T11:42:18.368Z,100482.13
2022-12-19T11:45:11.596Z,100475.22
2022-12-19T11:47:51.385Z,100474.16
2022-12-19T11:50:25.119Z,100472.97
2022-12-19T11:53:20.934Z,100464.91
2022-12-19T11:55:58.873Z,100457.06
2022-12-19T11:58:28.451Z,100469.56
2022-12-19T12:01:37.843Z,100472.25
2022-12-19T12:04:32.998Z,100459.66
2022-12-19T12:07:00.503Z,100456.00
2022-12-19T12:16:09.421Z,100451.59
2022-12-19T12:18:29.501Z,100449.25
2022-12-19T12:24:50.784Z,100445.69
2022-12-19T12:31:04.287Z,100440.31
2022-12-19T12:31:49.210Z,100437.09
2022-12-19T12:31:49.443Z,100433.31
2022-12-19T12:32:05.782Z,100439.66
2022-12-19T12:35:43.571Z,100434.94
2022-12-19T12:38:28.981Z,100439.38
2022-12-19T12:41:14.456Z,100435.91
2022-12-19T12:43:59.636Z,100437.28
2022-12-19T12:46:33.982Z,100434.06
2022-12-19T12:49:25.623Z,100435.25
2022-12-19T12:51:53.201Z,100430.94
2022-12-19T12:54:21.640Z,100429.53
2022-12-19T12:56:48.661Z,100436.97
2022-12-19T12:59:24.375Z,100430.41
2022-12-19T13:02:11.301Z,100434.91
2022-12-19T13:04:54.042Z,100427.28
2022-12-19T13:07:35.592Z,100421.81
2022-12-19T13:10:13.917Z,100421.03
2022-12-19T13:13:02.987Z,100417.38
2022-12-19T13:15:39.427Z,100420.28
2022-12-19T13:18:12.328Z,100418.25
2022-12-19T13:20:43.599Z,100422.22
2022-12-19T13:23:23.883Z,100419.28
2022-12-19T13:25:53.653Z,100423.16
2022-12-19T13:28:20.696Z,100416.16
2022-12-19T13:31:18.885Z,100417.91
2022-12-19T13:33:55.128Z,100413.16
2022-12-19T13:39:48.494Z,100412.97
2022-12-19T13:40:18.580Z,100411.25
2022-12-19T13:43:10.726Z,100416.44
2022-12-19T13:45:57.038Z,100417.69
2022-12-19T13:48:40.234Z,100419.31
2022-12-19T13:51:12.469Z,100415.03
2022-12-19T13:53:41.174Z,100420.63
2022-12-19T13:56:18.282Z,100409.75
2022-12-19T13:58:49.163Z,100411.81
2022-12-19T14:01:23.529Z,100412.97
2022-12-19T14:03:53.210Z,100411.56
2022-12-19T14:06:24.749Z,100409.19
2022-12-19T14:09:37.451Z,100414.38
2022-12-19T14:13:46.850Z,100412.88
2022-12-19T14:14:32.910Z,100413.50
2022-12-19T14:17:08.850Z,100407.91
2022-12-19T14:19:44.921Z,100406.09
2022-12-19T14:22:20.567Z,100411.47
2022-12-19T14:28:14.279Z,100402.00
2022-12-19T14:28:19.581Z,100400.38
2022-12-19T14:31:02.916Z,100398.66
2022-12-19T14:33:47.422Z,100395.22
2022-12-19T14:36:31.418Z,100385.41
2022-12-19T14:39:24.147Z,100381.00
2022-12-19T14:41:52.624Z,100380.38
2022-12-19T14:52:34.558Z,100376.06
2022-12-19T14:54:13.638Z,100371.97
2022-12-19T14:54:22.569Z,100375.28
2022-12-19T14:54:51.480Z,100370.44
2022-12-19T14:56:36.275Z,100377.63
2022-12-19T14:59:17.429Z,100364.41
2022-12-19T15:01:55.625Z,100380.44
2022-12-19T15:04:51.622Z,100370.41
2022-12-19T15:07:41.821Z,100370.13
2022-12-19T15:11:07.282Z,100365.81
2022-12-19T15:14:47.700Z,100355.25
2022-12-19T15:16:24.855Z,100364.69
2022-12-19T15:18:56.015Z,100354.91
2022-12-19T15:21:23.397Z,100357.72
2022-12-19T15:23:50.759Z,100347.28
2022-12-19T15:26:32.089Z,100354.38
2022-12-19T15:29:01.910Z,100344.81
2022-12-19T15:31:40.041Z,100352.31
2022-12-19T15:34:34.714Z,100356.91
2022-12-19T15:37:03.241Z,100354.75
2022-12-19T15:39:32.968Z,100356.91
2022-12-19T15:42:01.225Z,100359.13
2022-12-19T15:44:39.892Z,100346.97
2022-12-19T15:47:34.292Z,100345.25
2022-12-19T15:50:02.532Z,100332.75
2022-12-19T15:52:32.066Z,100326.19
2022-12-19T15:55:00.256Z,100338.00
2022-12-19T15:57:39.757Z,100339.16
2022-12-19T16:00:18.183Z,100347.59
2022-12-19T16:05:33.503Z,100343.13
2022-12-19T16:08:00.682Z,100344.97
2022-12-19T16:10:29.344Z,100347.75
2022-12-19T16:12:57.212Z,100347.19
2022-12-19T16:15:30.982Z,100351.88
2022-12-19T16:18:00.375Z,100354.47
2022-12-19T16:20:30.846Z,100341.38
2022-12-19T16:23:07.032Z,100329.84
2022-12-19T16:25:38.996Z,100326.50
2022-12-19T16:28:13.479Z,100326.13
2022-12-19T16:30:40.582Z,100330.72
2022-12-19T16:33:19.152Z,100325.50
2022-12-19T16:38:34.684Z,100307.09
2022-12-19T16:41:03.423Z,100316.28
2022-12-19T16:43:38.404Z,100311.09
2022-12-19T16:46:07.157Z,100304.91
2022-12-19T16:48:34.423Z,100305.00
2022-12-19T16:51:01.819Z,100295.31
2022-12-19T16:53:29.528Z,100302.91
2022-12-19T16:55:57.267Z,100296.56
2022-12-19T16:58:27.189Z,100303.00
2022-12-19T17:00:55.204Z,100310.47
2022-12-19T17:03:31.642Z,100314.22
2022-12-19T17:05:58.902Z,100311.72
2022-12-19T17:08:26.163Z,100313.53
2022-12-19T17:10:54.609Z,100309.31
2022-12-19T17:13:22.775Z,100301.75
2022-12-19T17:15:56.341Z,100305.56
2022-12-19T17:18:37.909Z,100319.16
2022-12-19T17:21:05.136Z,100312.19
2022-12-19T17:23:32.339Z,100327.41
2022-12-19T17:25:59.673Z,100327.59
2022-12-19T17:28:28.716Z,100321.44
2022-12-19T17:30:59.144Z,100323.28
2022-12-19T17:33:34.960Z,100319.72
2022-12-19T17:36:03.903Z,100325.28
2022-12-19T17:38:31.571Z,100324.50
2022-12-19T17:40:58.907Z,100317.22
2022-12-19T17:43:28.016Z,100322.59
2022-12-19T17:45:55.485Z,100330.13
2022-12-19T17:48:33.193Z,100339.13
2022-12-19T17:51:00.275Z,100339.31
2022-12-19T17:53:27.430Z,100329.75
2022-12-19T17:55:54.505Z,100337.03
2022-12-19T17:58:21.730Z,100343.44
2022-12-19T18:00:49.983Z,100340.75
2022-12-19T18:03:23.729Z,100335.38
2022-12-19T18:05:54.585Z,100326.47
2022-12-19T18:08:26.253Z,100313.09
2022-12-19T18:10:57.537Z,100320.94
2022-12-19T18:13:28.481Z,100321.91
2022-12-19T18:15:58.162Z,100315.50
2022-12-19T18:18:36.351Z,100305.72
2022-12-19T18:21:04.181Z,100312.72
2022-12-19T18:23:33.223Z,100301.91
2022-12-19T18:26:02.484Z,100301.31
2022-12-19T18:28:32.344Z,100303.03
2022-12-19T18:31:12.509Z,100299.59
2022-12-19T18:33:42.806Z,100317.47
2022-12-19T18:36:17.553Z,100297.09
2022-12-19T18:38:44.762Z,100308.69
2022-12-19T18:41:12.254Z,100308.69
2022-12-19T18:43:39.314Z,100309.84
2022-12-19T18:46:06.884Z,100306.47
2022-12-19T18:48:36.952Z,100292.31
2022-12-19T18:51:05.527Z,100293.34
2022-12-19T18:53:35.625Z,100287.34
2022-12-19T18:56:05.281Z,100278.59
2022-12-19T18:58:33.325Z,100272.50
2022-12-19T19:01:01.641Z,100282.50
2022-12-19T19:03:35.283Z,100288.06
2022-12-19T19:06:20.201Z,100287.19
2022-12-19T19:08:47.427Z,100291.66
2022-12-19T19:11:35.707Z,100290.03
2022-12-19T19:14:02.701Z,100302.59
2022-12-19T19:16:29.883Z,100318.72
2022-12-19T19:18:58.702Z,100312.88
2022-12-19T19:21:29.760Z,100327.09
2022-12-19T19:24:10.576Z,100318.31
2022-12-19T19:26:37.849Z,100312.19
2022-12-19T19:29:05.566Z,100319.28
2022-12-19T19:31:36.624Z,100316.69
2022-12-19T19:34:17.022Z,100306.22
2022-12-19T19:36:46.700Z,100301.84
2022-12-19T19:39:31.609Z,100304.59
2022-12-19T19:41:58.887Z,100305.72
2022-12-19T19:44:26.159Z,100297.88
2022-12-19T19:46:53.314Z,100294.53
2022-12-19T19:49:24.454Z,100297.38
2022-12-19T19:51:56.828Z,100297.56
2022-12-19T19:54:27.746Z,100305.50
2022-12-19T19:56:54.880Z,100295.75
2022-12-19T19:59:22.049Z,100295.56
2022-12-19T20:01:52.306Z,100299.97
2022-12-19T20:04:20.218Z,100290.81
2022-12-19T20:06:47.456Z,100301.34
2022-12-19T20:09:14.737Z,100299.63
2022-12-19T20:11:41.859Z,100308.50
2022-12-19T20:14:09.196Z,100311.09
2022-12-19T20:16:47.175Z,100318.59
2022-12-19T20:19:14.748Z,100310.88
2022-12-19T20:21:42.739Z,100319.72
2022-12-19T20:24:09.893Z,100323.00
2022-12-19T20:26:37.087Z,100323.88
2022-12-19T20:29:04.622Z,100314.81
2022-12-19T20:31:32.663Z,100329.81
2022-12-19T20:34:01.925Z,100330.78
2022-12-19T20:36:29.007Z,100334.50
2022-12-19T20:38:56.208Z,100330.09
2022-12-19T20:41:23.379Z,100332.84
2022-12-19T20:43:50.609Z,100340.53
2022-12-19T20:46:20.522Z,100354.88
2022-12-19T20:48:48.670Z,100345.91
2022-12-19T20:51:17.726Z,100343.38
2022-12-19T20:53:45.596Z,100342.88
2022-12-19T20:56:17.888Z,100340.28
2022-12-19T20:58:46.090Z,100336.84
2022-12-19T21:01:17.508Z,100330.69
2022-12-19T21:03:45.633Z,100330.78
2022-12-19T21:06:20.172Z,100333.47
2022-12-19T21:08:51.526Z,100334.09
2022-12-19T21:11:18.566Z,100342.72
2022-12-19T21:13:45.754Z,100341.50
2022-12-19T21:16:20.101Z,100336.66
2022-12-19T21:18:47.857Z,100331.03
2022-12-19T21:21:19.338Z,100326.97
2022-12-19T21:23:48.266Z,100337.31
2022-12-19T21:26:15.532Z,100342.16
2022-12-19T21:28:45.382Z,100350.84
2022-12-19T21:31:14.874Z,100344.28
2022-12-19T21:33:42.851Z,100351.44
2022-12-19T21:36:13.120Z,100343.91
2022-12-19T21:38:40.372Z,100340.09
2022-12-19T21:41:08.163Z,100338.78
2022-12-19T21:43:36.277Z,100330.47
2022-12-19T21:46:10.367Z,100332.13
2022-12-19T21:48:43.623Z,100325.91
2022-12-19T21:51:45.992Z,100328.19
2022-12-19T21:54:22.491Z,100320.84
2022-12-19T21:56:51.893Z,100323.25
2022-12-19T21:59:19.191Z,100331.28
2022-12-19T22:01:46.564Z,100325.75
2022-12-19T22:04:19.449Z,100328.97
2022-12-19T22:06:51.174Z,100312.63
2022-12-19T22:09:21.392Z,100328.50
2022-12-19T22:11:48.793Z,100321.75
2022-12-19T22:14:17.062Z,100335.06
2022-12-19T22:16:47.109Z,100317.84
2022-12-19T22:19:16.230Z,100329.88
2022-12-19T22:21:44.740Z,100328.06
2022-12-19T22:24:13.672Z,100321.47
2022-12-19T22:26:41.226Z,100312.38
2022-12-19T22:29:10.786Z,100319.38
2022-12-19T22:31:40.863Z,100322.81
2022-12-19T22:34:15.874Z,100318.22
2022-12-19T22:36:47.247Z,100311.63
2022-12-19T22:39:22.475Z,100319.44
2022-12-19T22:41:49.826Z,100307.09
2022-12-19T22:44:22.217Z,100307.69
2022-12-19T22:46:50.083Z,100310.06
2022-12-19T22:49:17.387Z,100299.25
2022-12-19T22:51:44.659Z,100307.94
2022-12-19T22:54:14.795Z,100320.53
2022-12-19T22:56:42.102Z,100314.84
2022-12-19T22:59:11.690Z,100301.16
2022-12-19T23:01:42.484Z,100301.16
2022-12-19T23:04:13.204Z,100285.16
2022-12-19T23:06:41.453Z,100286.59
2022-12-19T23:09:11.194Z,100288.31
2022-12-19T23:11:40.755Z,100290.81
2022-12-19T23:14:11.243Z,100283.50
2022-12-19T23:16:38.502Z,100288.97
2022-12-19T23:19:05.940Z,100279.00
2022-12-19T23:21:33.097Z,100274.34
2022-12-19T23:24:00.209Z,100278.63
2022-12-19T23:26:29.789Z,100278.34
2022-12-19T23:29:03.413Z,100275.56
2022-12-19T23:31:31.125Z,100273.66
2022-12-19T23:33:59.044Z,100272.41
2022-12-19T23:37:08.234Z,100276.50
2022-12-19T23:39:14.703Z,100276.09
2022-12-19T23:41:42.154Z,100271.50
2022-12-19T23:44:10.105Z,100277.72
2022-12-19T23:46:37.940Z,100278.69
2022-12-19T23:49:05.099Z,100274.19
2022-12-19T23:51:32.309Z,100280.28
2022-12-19T23:53:59.375Z,100280.28
2022-12-19T23:56:28.743Z,100274.84
2022-12-19T23:58:56.783Z,100281.63
